maandag 6 juli 2020 | Home | Bestenlijsten | Bestenlijsten NL | Calculators | Nieuws | Records | Uitslagen | Wedstrijden | VZA Ranglijsten | Weer |
 
Recent nieuws meer nieuws
20-06: Staf Dobbelaere: een schaap met vijf poten?
09-06: Woordenstrijd zonder koek
02-06: Terugblik op het NK marathon 1964 in Vlissingen
28-05: Is snelheid een relatief begrip? Maar dan op herhaling
19-05: Snelheid een relatief begrip?
06-05: Mag huidig niveau hardlopen zomaar vergeleken worden met dat van de jaren 70?
Wedstrijdagenda meer wedstrijden
vr 10-07: 1e Track Meeting Utrecht
vr 07-08: 2e Track Meeting Utrecht
 
Zoek tenminste met 3 tekens van wedstrijd, datum, plaats of atleet

2e IGA Natuurloop

Axel, zaterdag 21 december 2019 - Organisatie: Road Running Axel
8 km
PltsNaam
Tijdkm/umin/kmm/secgap
1  Sebastien MahiaBelgie28.36minMse   16.783  3:354.66-
2  Kevin StrobbeAdege29.46minMse   16.125  3:434.48+1:10
3  Thomas KruisifikxAxel30.53minMse   15.542  3:524.32+2:17
4  Floris HuighEindhoven33.16minMse   14.429  4:104.01+4:40
5  John CompietHulst33.57minMse   14.138  4:153.93+5:21
6  Evert de RijkeHoek34.38minMse   13.859  4:203.85+6:02
7  Danny de BaereWaasmunster34.52minMse   13.767  4:223.82+6:16
8  Jochem de DijckerAxel35.42minMse   13.445  4:283.73+7:06
9  Alex EversdijkTerneuzen36.53minMse   13.014  4:373.62+8:17
10  Mario SaerensLokeren36.53minMse   13.014  4:373.62+8:17
11  Linda VinkAxel39.45minVse   12.075  4:583.35+11:09
12  Eric de LaatKoewacht39.47minMse   12.065  4:583.35+11:11
13  Johan BrouwersOssenisse39.50minMse   12.050  4:593.35+11:14
14  Leo KaijserTerneuzen39.58minM55   12.010  5:003.34+11:22
15  Leon van BavinchovenTerneuzen40.46minM50   11.774  5:063.27+12:10
16  Freer van RoeyenAxel41.10minMse   11.660  5:093.24+12:34
17  Bennie BouterseTerneuzen41.37minMse   11.534  5:123.20+13:01
18  Yves BrackeZelzate42.13minMse   11.370  5:173.16+13:37
19  Mikal DHoogeOost-Eeklo42.27minVse   11.307  5:183.14+13:51
20  Johanna van AltenAxel44.07minVse   10.880  5:313.02+15:31
21  Daan DielemanZaamslag47.08minMse   10.184  5:542.83+18:32
22  Ron SlomeKloosterzande47.11minMse   10.173  5:542.83+18:35
23  Bernadette SalomeKloosterzande49.09minV50   9.766  6:092.71+20:33
24  Eddy van BovenSchoonaarde49.22minMse   9.723  6:102.70+20:46
25  Ine de DeijneKemzeke49.42minVse   9.658  6:132.68+21:06
26  Huib SchipperGrijpskerke51.17minMse   9.360  6:252.60+22:41
27  Ilse de SchrijverVrasene55.44minVse   8.612  6:582.39+27:08
28  Greta de VijlderSint-Gillis-Waas58.58minVse   8.140  7:222.26+30:22
29  Dominique van den DaeleWachtebeke1.00.12minVse   7.973  7:322.21+31:36
Mannen: 21 (72.41%) => M50=1 - M55=1 - Mse=19
Vrouwen: 8 (27.59%) => V50=1 - Vse=7
14.2 km
PltsNaam
Tijdkm/umin/kmm/secgap
1  Erwin van de BroekeAxel54.27minMse   15.647  3:504.35-
2  Marnix Van den BrandeTerneuzen57.23minMse   14.848  4:024.12+2:56
3  Ard-Jan DeurwaarderAxel1.00.07minMse   14.172  4:143.94+5:40
4  Menno den DekkerTerneuzen1.01.25minMse   13.872  4:203.85+6:58
5  Jeroen Van GoethemKloosterzande1.02.19minMse   13.672  4:233.80+7:52
6  Marnix HillaertMoerbeke1.03.43minMse   13.372  4:293.71+9:16
7  Matti BuysseStekene1.03.45minMse   13.365  4:293.71+9:18
8  Boris StockmanDrongen1.03.57minMse   13.323  4:303.70+9:30
9  Serge MartinuKoewacht1.04.43minMse   13.165  4:333.66+10:16
10  Van BeverenBeveren1.05.05minMse   13.091  4:353.64+10:38
11  Walter MurreZaamslag1.05.32minMse   13.001  4:373.61+11:05
12  Jaap van den VeenTerneuzen1.05.46minM50   12.955  4:383.60+11:19
13  Herman KuyenTerneuzen1.08.05minMse   12.514  4:483.48+13:38
14  Ingrid IJsebaertHulst1.08.29minV50   12.441  4:493.46+14:02
15  Sven BuhmannDuivenhoek1.08.47minMse   12.387  4:513.44+14:20
16  Frederiek Van LanschootMaldegem1.09.00minMse   12.348  4:523.43+14:33
17  David MullaertBiervliet1.09.56minMse   12.183  4:553.38+15:29
18  Briek CarnoyWachtebeke1.12.04minMse   11.822  5:053.28+17:37
19  Luc CarnoyWachtebeke1.12.07minMse   11.814  5:053.28+17:40
20  Selena TemmermanStekene1.12.11minVse   11.803  5:053.28+17:44
21  Paul HaertjensBoekhoute1.12.13minMse   11.798  5:053.28+17:46
22  Age BaltHulst1.12.44minMse   11.714  5:073.25+18:17
23  Marco WautersVogelwaarde1.13.01minMse   11.669  5:093.24+18:34
24  Frans VogelMiddelburg1.13.59minMse   11.516  5:133.20+19:32
25  Sofie BuysseAssenede1.15.57minVse   11.218  5:213.12+21:30
26  Patrick PielaatTerneuzen1.16.06minMse   11.196  5:223.11+21:39
27  Corina van de WegePhilippine1.16.14minVse   11.176  5:223.10+21:47
28  Marian van DammeMeerdonck1.17.16minVse   11.027  5:263.06+22:49
29  Marianne KnijffPhilippine1.19.55minV55   10.661  5:382.96+25:28
30  Tianda Donker CurtiusMiddelburg1.20.00minVse   10.650  5:382.96+25:33
31  Stefan ProvoostStekene1.21.51minMse   10.409  5:462.89+27:24
32  Ko HoeksmaKoewacht1.26.38minMse   9.835  6:062.73+32:11
33  Gilberte ScheldewaertSint-Amandsberg1.27.44minVse   9.711  6:112.70+33:17
34  Lieven De PaepeAalter1.31.40minMse   9.295  6:272.58+37:13
35  Chantal SchiperaardtTerneuzen1.34.19minVse   9.033  6:392.51+39:52
36  Karin den DekkerTerneuzen1.34.21minV45   9.030  6:392.51+39:54
37  Rudy Van De VeldeWachtebeke1.34.24minMse   9.025  6:392.51+39:57
39  Dominique De HeySint-Niklaas1.34.46minVse   8.991  6:402.50+40:19
40  Romain BolssensKieldrecht1.35.09minMse   8.954  6:422.49+40:42
Mannen: 28 (71.79%) => M50=1 - Mse=27
Vrouwen: 11 (28.21%) => V45=1 - V50=1 - V55=1 - Vse=8

Snelheid en tempo zijn berekend op de vermelde afstand. Bij een onjuiste afstand wijken deze uiteraard af!

Fouten melden via info@atletiekzeeland.nl Categorie fout? Mail dan geboortedatum. (geldt alleen voor Zeeuwen)

De server had 0.078 seconden nodig om deze lijst met 68 prestaties samen te stellen.

Terug naar boven


 
Recente Zeeuwse prestaties meer prestaties
04-07: Testwedstrijd Papendal (1)
1500 m Tim van den Broeke (PR 3.45.11)3.45.99  Mse
Atletiek Zeeland © 2020